Time;durP1;ratioP1;P1;durP2;ratioP2;P2;SDS_P1;SDS_P2;PMS_P1;PMS_P2;Temp;Humidity;BMP_temperature;BMP_pressure;BME280_temperature;BME280_humidity;BME280_pressure;Samples;Min_cycle;Max_cycle;Signal;HPM_P1;HPM_P2
2022/12/02 00:00:32;;;;;;;10.85;7.70;;;22.30;36.40;;;;;;7678466;22;80872;-63
2022/12/02 00:03:33;;;;;;;10.23;7.78;;;22.30;36.40;;;;;;7677864;22;80877;-61
2022/12/02 00:06:33;;;;;;;10.20;7.50;;;22.30;36.90;;;;;;7674953;22;80755;-62
2022/12/02 00:09:34;;;;;;;8.40;6.47;;;22.30;37.40;;;;;;7677171;22;81169;-63
2022/12/02 00:12:34;;;;;;;10.43;7.65;;;22.30;37.90;;;;;;7679375;22;82926;-63
2022/12/02 00:15:35;;;;;;;10.95;7.22;;;22.30;38.20;;;;;;7676807;22;80465;-61
2022/12/02 00:18:35;;;;;;;10.75;7.45;;;22.30;38.10;;;;;;7676360;22;80564;-60
2022/12/02 00:21:36;;;;;;;8.95;6.63;;;22.30;38.30;;;;;;7678043;22;80547;-59
2022/12/02 00:24:36;;;;;;;10.35;6.68;;;22.30;38.50;;;;;;7678649;22;80248;-60
2022/12/02 00:27:37;;;;;;;8.27;6.28;;;22.30;38.30;;;;;;7680331;22;80410;-59
2022/12/02 00:30:39;;;;;;;8.60;6.38;;;22.30;38.30;;;;;;7675768;22;81002;-59
2022/12/02 00:33:42;;;;;;;8.52;6.40;;;22.30;38.40;;;;;;7677366;22;81790;-59
2022/12/02 00:36:42;;;;;;;6.95;5.78;;;22.20;38.40;;;;;;7652256;22;81743;-68
2022/12/02 00:39:44;;;;;;;8.63;6.63;;;22.30;38.40;;;;;;7649816;22;81732;-68
2022/12/02 00:42:44;;;;;;;8.73;6.63;;;22.30;38.40;;;;;;7652355;22;83084;-69
2022/12/02 00:49:04;;;;;;;8.13;6.43;;;22.20;38.30;;;;;;7652141;22;83543;-68
2022/12/02 00:52:05;;;;;;;9.38;6.80;;;22.30;38.40;;;;;;7677007;22;80795;-68
2022/12/02 00:55:05;;;;;;;7.78;6.20;;;22.30;38.40;;;;;;7652757;22;83538;-61
2022/12/02 00:58:06;;;;;;;8.52;6.57;;;22.30;38.50;;;;;;7650201;22;84382;-61
2022/12/02 01:01:06;;;;;;;9.05;6.32;;;22.20;38.30;;;;;;7677865;22;80450;-62
2022/12/02 01:04:07;;;;;;;8.45;6.28;;;22.20;38.50;;;;;;7678793;22;80478;-62
2022/12/02 01:07:07;;;;;;;11.30;6.20;;;22.20;38.80;;;;;;7677020;22;80467;-62
2022/12/02 01:10:08;;;;;;;8.02;6.47;;;22.20;38.60;;;;;;7677881;22;80622;-61
2022/12/02 01:13:08;;;;;;;9.15;6.90;;;22.20;38.60;;;;;;7677596;22;80904;-59
2022/12/02 01:16:09;;;;;;;8.13;6.15;;;22.20;38.60;;;;;;7676016;22;80382;-59
2022/12/02 01:19:09;;;;;;;8.30;5.95;;;22.20;38.70;;;;;;7679365;22;80303;-60
2022/12/02 01:22:11;;;;;;;8.30;6.32;;;22.20;38.70;;;;;;7652032;22;83125;-59
2022/12/02 01:25:11;;;;;;;8.32;6.50;;;22.20;38.70;;;;;;7677173;22;81089;-60
2022/12/02 01:28:13;;;;;;;8.73;6.43;;;22.20;38.70;;;;;;7650050;22;83169;-58
2022/12/02 01:31:14;;;;;;;9.23;6.57;;;22.20;38.80;;;;;;7675392;22;81830;-69
2022/12/02 01:34:14;;;;;;;8.82;6.68;;;22.20;38.90;;;;;;7675552;22;80252;-68
2022/12/02 01:37:15;;;;;;;8.52;6.65;;;22.20;38.90;;;;;;7650109;22;83119;-67
2022/12/02 01:40:15;;;;;;;10.25;6.40;;;22.20;38.90;;;;;;7650692;22;81330;-67
2022/12/02 01:43:16;;;;;;;10.70;7.60;;;22.20;38.90;;;;;;7651826;22;81483;-68
2022/12/02 01:46:16;;;;;;;9.40;6.88;;;22.20;38.80;;;;;;7675004;22;80225;-67
2022/12/02 01:49:17;;;;;;;7.82;6.38;;;22.10;38.80;;;;;;7673209;22;81265;-67
2022/12/02 01:52:17;;;;;;;9.80;7.40;;;22.10;38.80;;;;;;7673596;22;80560;-67
2022/12/02 01:55:18;;;;;;;9.90;7.22;;;22.10;38.70;;;;;;7675308;22;81158;-67
2022/12/02 01:58:19;;;;;;;8.90;7.05;;;22.10;38.70;;;;;;7671862;22;80361;-69
2022/12/02 02:01:19;;;;;;;8.88;6.72;;;22.10;38.60;;;;;;7649023;22;82838;-68
2022/12/02 02:04:20;;;;;;;11.45;7.28;;;22.10;38.60;;;;;;7676122;22;80851;-67
2022/12/02 02:07:21;;;;;;;10.32;7.50;;;22.10;38.60;;;;;;7648626;22;81491;-67
2022/12/02 02:10:23;;;;;;;11.05;7.43;;;22.10;38.60;;;;;;7649939;22;81299;-68
2022/12/02 02:13:24;;;;;;;11.40;7.72;;;22.10;38.40;;;;;;7678998;22;80528;-68
2022/12/02 02:16:24;;;;;;;12.65;7.93;;;22.10;38.10;;;;;;7676388;22;80076;-67
2022/12/02 02:19:25;;;;;;;10.50;7.82;;;22.10;37.90;;;;;;7650330;22;82935;-68
2022/12/02 02:22:26;;;;;;;11.07;8.18;;;22.10;37.90;;;;;;7675407;22;81263;-68
2022/12/02 02:25:27;;;;;;;9.85;7.57;;;22.10;37.90;;;;;;7649356;22;82925;-67
2022/12/02 02:28:27;;;;;;;9.63;7.53;;;22.10;38.00;;;;;;7653448;22;81280;-66
2022/12/02 02:31:28;;;;;;;10.82;7.90;;;22.10;38.00;;;;;;7649819;22;82559;-67
2022/12/02 02:34:28;;;;;;;10.45;7.82;;;22.10;38.10;;;;;;7679336;22;81223;-68
2022/12/02 02:37:29;;;;;;;12.50;8.57;;;22.10;37.90;;;;;;7648541;22;83327;-69
2022/12/02 02:40:29;;;;;;;10.10;7.72;;;22.10;37.90;;;;;;7650157;22;82921;-67
2022/12/02 02:43:31;;;;;;;9.73;7.53;;;22.10;38.20;;;;;;7652408;22;81467;-70
2022/12/02 02:46:32;;;;;;;12.57;7.30;;;22.10;38.20;;;;;;7651220;22;83211;-70
2022/12/02 02:49:32;;;;;;;10.90;7.72;;;22.10;38.20;;;;;;7651932;22;83282;-71
2022/12/02 02:52:33;;;;;;;11.57;8.30;;;22.10;38.40;;;;;;7679390;22;80873;-70
2022/12/02 02:55:33;;;;;;;11.07;7.47;;;22.10;38.40;;;;;;7652914;22;81991;-70
2022/12/02 02:58:35;;;;;;;11.23;7.57;;;22.10;38.50;;;;;;7651146;22;81932;-70
2022/12/02 03:01:36;;;;;;;10.02;7.68;;;22.10;38.40;;;;;;7650762;22;83434;-69
2022/12/02 03:04:38;;;;;;;9.77;7.95;;;22.10;38.50;;;;;;7651616;22;83647;-68
2022/12/02 03:07:39;;;;;;;11.95;8.25;;;22.00;38.50;;;;;;7650602;22;83023;-68
2022/12/02 03:10:39;;;;;;;10.63;7.90;;;22.00;38.50;;;;;;7651894;22;82150;-69
2022/12/02 03:13:40;;;;;;;10.98;8.15;;;22.00;38.40;;;;;;7652065;22;81891;-69
2022/12/02 03:16:40;;;;;;;10.55;8.27;;;22.00;38.40;;;;;;7677275;22;81162;-67
2022/12/02 03:19:41;;;;;;;10.05;7.63;;;22.00;38.50;;;;;;7679445;22;81171;-68
2022/12/02 03:22:41;;;;;;;12.05;8.00;;;22.00;38.40;;;;;;7679609;22;81446;-71
2022/12/02 03:25:41;;;;;;;10.32;7.07;;;22.00;38.30;;;;;;7676209;22;80757;-71
2022/12/02 03:28:42;;;;;;;9.60;7.75;;;22.00;38.40;;;;;;7677807;22;81372;-70
2022/12/02 03:31:42;;;;;;;10.73;8.25;;;22.00;38.40;;;;;;7680003;22;80317;-68
2022/12/02 03:34:43;;;;;;;11.43;7.47;;;22.00;38.30;;;;;;7678351;22;81299;-68
2022/12/02 03:37:44;;;;;;;11.07;7.65;;;22.00;38.30;;;;;;7677526;22;80430;-68
2022/12/02 03:40:44;;;;;;;12.85;8.23;;;22.00;38.30;;;;;;7678388;22;81449;-60
2022/12/02 03:43:45;;;;;;;11.30;8.43;;;22.00;38.20;;;;;;7679704;22;80928;-59
2022/12/02 03:46:46;;;;;;;10.35;7.90;;;22.00;38.10;;;;;;7680128;22;80239;-60
2022/12/02 03:49:47;;;;;;;10.82;8.02;;;22.00;38.10;;;;;;7675342;22;81344;-61
2022/12/02 03:52:47;;;;;;;13.43;8.73;;;22.00;38.00;;;;;;7678441;22;80423;-60
2022/12/02 03:55:48;;;;;;;12.38;8.02;;;22.00;38.00;;;;;;7678243;22;80618;-60
2022/12/02 03:58:48;;;;;;;10.88;7.65;;;22.10;38.10;;;;;;7678654;22;80186;-59
2022/12/02 04:01:49;;;;;;;10.55;7.97;;;22.00;38.00;;;;;;7677478;22;80325;-60
2022/12/02 04:04:49;;;;;;;11.73;8.40;;;22.00;38.10;;;;;;7679239;22;80412;-60
2022/12/02 04:07:50;;;;;;;11.68;7.70;;;22.00;38.10;;;;;;7680157;22;80669;-59
2022/12/02 04:10:50;;;;;;;10.73;7.95;;;22.00;38.10;;;;;;7650797;22;80305;-59
2022/12/02 04:13:51;;;;;;;8.20;6.78;;;22.00;38.00;;;;;;7678579;22;82892;-59
2022/12/02 04:16:51;;;;;;;12.57;8.25;;;22.10;38.30;;;;;;7678600;22;80396;-62
2022/12/02 04:19:52;;;;;;;12.00;8.25;;;22.00;37.90;;;;;;7679623;22;80554;-62
2022/12/02 04:22:52;;;;;;;10.93;8.45;;;22.10;37.50;;;;;;7678575;22;80202;-61
2022/12/02 04:25:53;;;;;;;10.98;8.50;;;22.10;37.40;;;;;;7675971;22;80181;-62
2022/12/02 04:28:53;;;;;;;11.73;8.57;;;22.20;37.30;;;;;;7677489;22;82696;-61
2022/12/02 04:31:54;;;;;;;14.43;8.38;;;22.20;37.10;;;;;;7677715;22;82029;-60
2022/12/02 04:34:54;;;;;;;12.88;8.60;;;22.30;37.00;;;;;;7676958;22;80676;-60
2022/12/02 04:37:55;;;;;;;11.18;8.52;;;22.40;36.90;;;;;;7680199;22;80352;-60
2022/12/02 04:40:55;;;;;;;12.55;8.80;;;22.40;36.80;;;;;;7672938;22;80368;-62
2022/12/02 04:43:56;;;;;;;11.25;8.35;;;22.40;37.00;;;;;;7678902;22;88215;-61
2022/12/02 04:46:56;;;;;;;14.35;9.52;;;22.50;36.60;;;;;;7651278;22;81110;-60
2022/12/02 04:49:56;;;;;;;11.77;8.15;;;22.50;36.60;;;;;;7676698;22;80282;-66
2022/12/02 04:52:57;;;;;;;11.85;8.50;;;22.60;36.70;;;;;;7660839;22;80602;-61
2022/12/02 04:55:57;;;;;;;12.88;7.70;;;22.60;36.80;;;;;;7673299;22;80925;-72
2022/12/02 04:58:58;;;;;;;10.52;7.78;;;22.70;37.10;;;;;;7671609;22;80694;-68
2022/12/02 05:01:59;;;;;;;12.15;8.20;;;22.70;36.90;;;;;;7673591;22;80779;-61
2022/12/02 05:04:59;;;;;;;13.98;8.13;;;22.70;36.40;;;;;;7673732;22;80883;-60
2022/12/02 05:08:00;;;;;;;13.13;7.88;;;22.70;36.10;;;;;;7675108;22;80431;-59
2022/12/02 05:11:00;;;;;;;11.80;8.27;;;22.80;35.90;;;;;;7677293;22;81135;-59
2022/12/02 05:14:00;;;;;;;11.00;7.90;;;22.80;35.70;;;;;;7675083;22;80753;-68
2022/12/02 05:17:02;;;;;;;10.43;7.82;;;22.80;36.20;;;;;;7675416;22;80999;-64
2022/12/02 05:20:03;;;;;;;13.05;8.32;;;22.80;36.50;;;;;;7650765;22;81163;-59
2022/12/02 05:23:03;;;;;;;15.80;8.35;;;22.80;36.30;;;;;;7676971;22;80483;-65
2022/12/02 05:26:04;;;;;;;10.32;7.53;;;22.90;36.80;;;;;;7677430;22;80663;-63
2022/12/02 05:29:05;;;;;;;9.13;7.00;;;22.80;36.40;;;;;;7662307;22;81549;-60
2022/12/02 05:32:05;;;;;;;11.18;7.47;;;22.90;36.80;;;;;;7673109;22;80984;-58
2022/12/02 05:35:07;;;;;;;9.57;7.05;;;22.90;36.70;;;;;;7651157;22;82250;-58
2022/12/02 05:38:07;;;;;;;9.48;7.28;;;22.90;36.70;;;;;;7678547;22;80580;-58
2022/12/02 05:41:08;;;;;;;11.30;7.75;;;22.90;36.70;;;;;;7669187;22;81919;-56
2022/12/02 05:44:08;;;;;;;11.15;7.95;;;22.90;36.60;;;;;;7676340;22;80229;-58
2022/12/02 05:47:09;;;;;;;10.93;7.95;;;22.90;36.50;;;;;;7678153;22;80542;-59
2022/12/02 05:50:10;;;;;;;10.93;7.78;;;22.90;36.10;;;;;;7675706;22;80141;-61
2022/12/02 05:53:10;;;;;;;11.43;7.53;;;22.90;36.70;;;;;;7658712;22;81271;-58
2022/12/02 05:56:11;;;;;;;12.52;8.05;;;23.00;36.70;;;;;;7672319;22;87829;-60
2022/12/02 05:59:11;;;;;;;15.02;7.90;;;23.00;36.60;;;;;;7666744;22;81512;-57
2022/12/02 06:02:12;;;;;;;11.10;7.57;;;22.90;36.30;;;;;;7673366;22;80599;-58
2022/12/02 06:05:12;;;;;;;13.60;7.55;;;22.90;36.20;;;;;;7669209;22;80696;-57
2022/12/02 06:08:13;;;;;;;12.98;7.22;;;22.90;36.00;;;;;;7673939;22;80342;-56
2022/12/02 06:11:13;;;;;;;9.50;7.03;;;22.90;35.80;;;;;;7674405;22;81718;-56
2022/12/02 06:14:14;;;;;;;11.73;7.90;;;22.90;35.80;;;;;;7676662;22;81654;-57
2022/12/02 06:17:14;;;;;;;13.07;7.28;;;22.80;35.70;;;;;;7674039;22;80341;-55
2022/12/02 06:20:15;;;;;;;9.65;7.47;;;22.80;35.70;;;;;;7672746;22;80485;-55
2022/12/02 06:23:15;;;;;;;12.40;8.35;;;22.80;35.70;;;;;;7676669;22;80616;-57
2022/12/02 06:26:16;;;;;;;13.25;8.13;;;22.80;35.60;;;;;;7675178;22;80451;-58
2022/12/02 06:29:16;;;;;;;9.95;7.85;;;22.70;35.50;;;;;;7673766;22;80642;-57
2022/12/02 06:32:17;;;;;;;12.05;7.65;;;22.70;35.50;;;;;;7675029;22;80991;-57
2022/12/02 06:35:17;;;;;;;10.73;7.15;;;22.70;35.60;;;;;;7674971;22;80576;-57
2022/12/02 06:38:18;;;;;;;11.75;8.23;;;22.70;35.60;;;;;;7658604;22;80570;-57
2022/12/02 06:41:19;;;;;;;10.43;8.00;;;22.60;35.60;;;;;;7633663;22;80403;-55
2022/12/02 06:47:38;;;;;;;11.23;7.57;;;22.60;35.90;;;;;;7639117;22;81342;-57
2022/12/02 06:50:39;;;;;;;11.48;8.48;;;22.50;35.70;;;;;;7637489;22;81956;-57
2022/12/02 06:53:39;;;;;;;11.18;8.20;;;22.50;35.50;;;;;;7632196;22;80146;-58
2022/12/02 06:56:40;;;;;;;12.40;8.60;;;22.50;35.60;;;;;;7612626;22;81021;-58
2022/12/02 06:59:40;;;;;;;11.48;7.57;;;22.40;35.50;;;;;;7620705;22;81465;-57
2022/12/02 07:02:41;;;;;;;10.73;7.93;;;22.40;35.40;;;;;;7632614;22;80838;-55
2022/12/02 07:05:41;;;;;;;11.05;8.30;;;22.30;35.00;;;;;;7633799;22;80378;-57
2022/12/02 07:08:42;;;;;;;11.52;8.13;;;22.40;35.20;;;;;;7640279;22;80987;-56
2022/12/02 07:11:54;;;;;;;11.85;7.88;;;22.30;34.90;;;;;;7638662;22;80398;-56
2022/12/02 07:14:55;;;;;;;10.48;7.75;;;22.30;35.10;;;;;;7640176;22;81008;-53
2022/12/02 07:17:55;;;;;;;10.68;8.20;;;22.30;35.40;;;;;;7641653;22;80848;-56
2022/12/02 07:20:56;;;;;;;11.90;8.38;;;22.30;35.30;;;;;;7641587;22;81362;-63
2022/12/02 07:23:56;;;;;;;8.75;7.32;;;22.20;35.10;;;;;;7639652;22;80634;-63
2022/12/02 07:26:57;;;;;;;9.73;7.85;;;22.20;34.90;;;;;;7643010;22;81073;-63
2022/12/02 07:29:57;;;;;;;12.15;8.32;;;22.20;34.80;;;;;;7639144;22;80292;-62
2022/12/02 07:32:58;;;;;;;9.90;7.60;;;22.20;34.90;;;;;;7643261;22;80608;-62
2022/12/02 07:35:58;;;;;;;9.73;7.50;;;22.10;34.60;;;;;;7640233;22;80398;-62
2022/12/02 07:38:59;;;;;;;11.85;8.05;;;22.10;34.60;;;;;;7638680;22;80875;-63
2022/12/02 07:41:59;;;;;;;11.48;8.65;;;22.10;34.90;;;;;;7602279;22;82493;-63
2022/12/02 07:45:00;;;;;;;13.32;8.25;;;22.10;35.70;;;;;;7438745;22;83091;-63
2022/12/02 07:48:00;;;;;;;14.15;8.50;;;22.10;36.10;;;;;;7609514;22;81460;-62
2022/12/02 07:51:01;;;;;;;13.57;8.07;;;22.10;36.20;;;;;;7649681;22;81319;-62
2022/12/02 07:54:01;;;;;;;11.63;8.00;;;22.10;36.20;;;;;;7662622;22;80417;-62
2022/12/02 07:57:02;;;;;;;11.13;7.88;;;22.00;36.50;;;;;;7666646;22;80460;-63
2022/12/02 08:00:02;;;;;;;12.05;7.82;;;22.00;36.80;;;;;;7677112;22;80487;-60
2022/12/02 08:03:12;;;;;;;13.57;8.57;;;22.00;37.00;;;;;;7669052;22;81145;-65
2022/12/02 08:06:14;;;;;;;11.48;7.68;;;22.00;37.20;;;;;;7669597;22;80352;-62
2022/12/02 08:09:14;;;;;;;12.38;8.32;;;22.00;37.30;;;;;;7677764;22;81977;-62
2022/12/02 08:12:15;;;;;;;11.63;8.23;;;22.00;37.20;;;;;;7677515;22;80584;-64
2022/12/02 08:15:15;;;;;;;10.15;7.22;;;22.00;37.10;;;;;;7649287;22;81949;-64
2022/12/02 08:18:16;;;;;;;11.20;7.65;;;22.00;37.00;;;;;;7671166;22;80607;-63
2022/12/02 08:21:16;;;;;;;10.00;7.75;;;21.90;36.80;;;;;;7676244;22;81180;-64
2022/12/02 08:24:16;;;;;;;12.23;7.57;;;21.90;36.70;;;;;;7673476;22;80230;-64
2022/12/02 08:27:17;;;;;;;9.73;7.18;;;21.90;36.70;;;;;;7669472;22;81185;-65
2022/12/02 08:30:18;;;;;;;9.02;7.05;;;22.00;36.90;;;;;;7674064;22;80994;-65
2022/12/02 08:33:18;;;;;;;10.20;6.70;;;22.00;37.50;;;;;;7649698;22;82647;-61
2022/12/02 08:36:19;;;;;;;11.32;8.30;;;22.00;36.10;;;;;;7678258;22;80647;-65
2022/12/02 08:39:19;;;;;;;11.13;7.78;;;22.00;36.00;;;;;;7671798;22;80136;-64
2022/12/02 08:42:20;;;;;;;9.85;7.47;;;22.00;35.80;;;;;;7674635;22;81336;-62
2022/12/02 08:45:20;;;;;;;10.05;7.47;;;22.10;35.60;;;;;;7674965;22;81162;-64
2022/12/02 08:48:21;;;;;;;10.20;7.75;;;22.10;35.50;;;;;;7664918;22;80827;-64
2022/12/02 08:51:21;;;;;;;11.63;7.35;;;22.10;35.00;;;;;;7674357;22;80889;-64
2022/12/02 08:54:22;;;;;;;10.23;7.40;;;22.10;35.00;;;;;;7676566;22;80524;-58
2022/12/02 08:57:22;;;;;;;10.60;7.63;;;22.20;35.10;;;;;;7675800;22;81739;-59
2022/12/02 09:00:23;;;;;;;10.85;7.75;;;22.20;35.00;;;;;;7673269;22;82645;-63
2022/12/02 09:03:23;;;;;;;10.77;7.50;;;22.20;34.70;;;;;;7675267;22;81405;-64
2022/12/02 09:06:24;;;;;;;11.57;7.95;;;22.30;35.20;;;;;;7674145;22;81196;-64
2022/12/02 09:09:24;;;;;;;11.05;8.10;;;22.30;36.20;;;;;;7676167;22;80585;-64
2022/12/02 09:12:26;;;;;;;9.75;6.90;;;22.30;37.20;;;;;;7647140;22;81810;-60
2022/12/02 09:15:27;;;;;;;11.50;7.57;;;22.30;37.80;;;;;;7675311;22;80666;-58
2022/12/02 09:18:27;;;;;;;10.68;7.53;;;22.30;38.60;;;;;;7675996;22;79913;-58
2022/12/02 09:21:28;;;;;;;10.05;8.25;;;22.30;39.00;;;;;;7674857;22;80344;-59
2022/12/02 09:24:28;;;;;;;12.88;8.88;;;22.30;39.20;;;;;;7671945;22;80232;-58
2022/12/02 09:27:29;;;;;;;11.70;7.93;;;22.30;39.90;;;;;;7647498;22;81989;-58
2022/12/02 09:30:29;;;;;;;9.88;7.13;;;22.30;40.10;;;;;;7665771;22;80611;-60
2022/12/02 09:33:30;;;;;;;10.50;7.95;;;22.30;40.40;;;;;;7672654;22;81379;-60
2022/12/02 09:36:30;;;;;;;12.48;8.32;;;22.30;40.40;;;;;;7648990;22;80727;-61
2022/12/02 09:39:31;;;;;;;11.15;8.20;;;22.30;40.50;;;;;;7645588;22;82104;-61
2022/12/02 09:42:31;;;;;;;12.32;8.32;;;22.30;40.50;;;;;;7675210;22;81293;-57
2022/12/02 09:45:32;;;;;;;12.57;8.38;;;22.30;40.50;;;;;;7678286;22;80914;-58
2022/12/02 09:48:32;;;;;;;11.00;7.80;;;22.30;40.70;;;;;;7672450;22;80605;-62
2022/12/02 09:51:33;;;;;;;11.57;8.32;;;22.30;40.60;;;;;;7669902;22;80512;-61
2022/12/02 09:54:33;;;;;;;10.05;7.95;;;22.30;40.60;;;;;;7670547;22;80318;-62
2022/12/02 09:57:34;;;;;;;10.30;7.65;;;22.30;40.50;;;;;;7673404;22;80770;-62
2022/12/02 10:00:34;;;;;;;11.35;8.45;;;22.30;40.30;;;;;;7672652;22;80982;-62
2022/12/02 10:03:35;;;;;;;11.00;8.20;;;22.30;40.30;;;;;;7651337;22;83580;-61
2022/12/02 10:06:35;;;;;;;10.30;8.63;;;22.20;40.00;;;;;;7677657;22;80538;-62
2022/12/02 10:09:36;;;;;;;12.25;8.88;;;22.20;40.30;;;;;;7673002;22;80363;-62
2022/12/02 10:12:36;;;;;;;12.25;8.90;;;22.20;40.60;;;;;;7678368;22;80695;-61
2022/12/02 10:15:37;;;;;;;10.10;7.85;;;22.10;40.30;;;;;;7672607;22;81561;-61
2022/12/02 10:18:37;;;;;;;12.68;8.23;;;22.10;40.40;;;;;;7678082;22;81170;-61
2022/12/02 10:21:37;;;;;;;12.77;9.00;;;22.00;40.40;;;;;;7677637;22;80029;-62
2022/12/02 10:24:38;;;;;;;11.23;8.25;;;22.00;40.60;;;;;;7677984;22;80760;-62
2022/12/02 10:27:38;;;;;;;13.48;8.52;;;22.00;40.40;;;;;;7678635;22;79966;-59
2022/12/02 10:30:39;;;;;;;11.45;8.68;;;22.00;40.50;;;;;;7672576;22;81114;-63
2022/12/02 10:33:39;;;;;;;11.70;8.45;;;21.90;40.60;;;;;;7678736;22;80183;-60
2022/12/02 10:36:40;;;;;;;11.82;8.50;;;21.90;40.40;;;;;;7673536;22;80961;-60
2022/12/02 10:39:40;;;;;;;12.93;8.93;;;21.90;40.30;;;;;;7652862;22;81903;-60
2022/12/02 10:42:41;;;;;;;10.57;8.60;;;21.90;40.10;;;;;;7676250;22;82275;-62
2022/12/02 10:45:41;;;;;;;12.30;8.18;;;21.90;40.00;;;;;;7676847;22;80270;-59
2022/12/02 10:48:42;;;;;;;11.13;8.55;;;21.90;39.80;;;;;;7672100;22;81432;-59
2022/12/02 10:51:42;;;;;;;14.68;9.32;;;21.90;40.00;;;;;;7674977;22;80498;-61
2022/12/02 10:54:43;;;;;;;12.93;9.63;;;21.90;40.20;;;;;;7659085;22;81294;-61
2022/12/02 10:57:44;;;;;;;12.20;8.75;;;21.90;40.60;;;;;;7676890;22;80558;-61
2022/12/02 11:00:44;;;;;;;13.43;8.70;;;21.80;40.60;;;;;;7675884;22;80428;-61
2022/12/02 11:03:46;;;;;;;13.50;8.95;;;21.80;40.60;;;;;;7672520;22;81037;-60
2022/12/02 11:06:48;;;;;;;14.02;9.05;;;21.80;40.40;;;;;;7675123;22;81231;-60
2022/12/02 11:09:48;;;;;;;14.07;9.00;;;21.70;40.40;;;;;;7673614;22;80851;-61
2022/12/02 11:12:49;;;;;;;11.18;8.50;;;21.70;40.30;;;;;;7675595;22;81081;-61
2022/12/02 11:15:49;;;;;;;12.98;9.05;;;21.80;40.10;;;;;;7673614;22;81049;-61
2022/12/02 11:18:49;;;;;;;14.38;9.25;;;21.70;40.00;;;;;;7675899;22;81001;-60
2022/12/02 11:21:50;;;;;;;18.13;9.50;;;21.70;40.00;;;;;;7671857;22;81047;-63
2022/12/02 11:24:50;;;;;;;12.95;8.55;;;21.70;40.00;;;;;;7646489;22;82430;-61
2022/12/02 11:27:51;;;;;;;13.75;8.45;;;21.70;39.90;;;;;;7671265;22;80549;-62
2022/12/02 11:30:51;;;;;;;13.75;9.23;;;21.70;40.20;;;;;;7673134;22;80153;-61
2022/12/02 11:33:53;;;;;;;12.98;9.07;;;21.70;40.40;;;;;;7670335;22;80981;-61
2022/12/02 11:36:53;;;;;;;12.80;8.57;;;21.70;40.40;;;;;;7677068;22;80762;-61
2022/12/02 11:39:54;;;;;;;11.60;8.63;;;21.70;40.60;;;;;;7678325;22;81043;-60
2022/12/02 11:42:54;;;;;;;15.45;9.65;;;21.70;40.90;;;;;;7672518;22;80166;-61
2022/12/02 11:45:55;;;;;;;12.85;9.10;;;21.80;41.50;;;;;;7676717;22;80442;-61
2022/12/02 11:48:56;;;;;;;15.68;9.82;;;21.80;41.80;;;;;;7674322;22;86877;-62
2022/12/02 11:51:56;;;;;;;13.20;9.23;;;21.80;42.80;;;;;;7671110;22;81921;-63
2022/12/02 11:54:57;;;;;;;13.95;9.60;;;21.80;44.00;;;;;;7673865;22;80289;-62
2022/12/02 11:57:57;;;;;;;13.65;9.20;;;21.80;45.30;;;;;;7674289;22;81139;-56
2022/12/02 12:00:58;;;;;;;12.93;9.05;;;21.80;44.90;;;;;;7674631;22;81247;-60
2022/12/02 12:03:58;;;;;;;12.00;8.68;;;21.80;45.10;;;;;;7670970;22;80742;-58
2022/12/02 12:06:59;;;;;;;14.48;9.10;;;21.70;44.50;;;;;;7668147;22;80748;-60
2022/12/02 12:09:59;;;;;;;13.95;9.43;;;21.80;44.50;;;;;;7669298;22;80301;-58
2022/12/02 12:13:00;;;;;;;13.27;9.57;;;21.70;43.90;;;;;;7667985;22;80715;-60
2022/12/02 12:16:00;;;;;;;12.38;8.70;;;21.70;43.60;;;;;;7670145;22;81216;-59
2022/12/02 12:19:01;;;;;;;12.77;8.63;;;21.70;42.90;;;;;;7670369;22;80186;-59
2022/12/02 12:22:01;;;;;;;12.18;8.88;;;21.70;42.90;;;;;;7669681;22;80443;-58
2022/12/02 12:25:02;;;;;;;11.45;8.75;;;21.70;42.40;;;;;;7657425;22;80531;-59
2022/12/02 12:28:02;;;;;;;13.35;8.80;;;21.70;42.00;;;;;;7670125;22;80986;-59
2022/12/02 12:31:03;;;;;;;13.43;8.88;;;21.70;41.70;;;;;;7669657;22;80937;-59
2022/12/02 12:34:03;;;;;;;13.85;8.57;;;21.70;41.80;;;;;;7668085;22;80989;-61
2022/12/02 12:37:03;;;;;;;11.40;8.68;;;21.70;41.50;;;;;;7648400;22;83520;-59
2022/12/02 12:40:04;;;;;;;11.88;8.48;;;21.70;41.40;;;;;;7673045;22;81240;-60
2022/12/02 12:43:04;;;;;;;12.82;9.05;;;21.70;41.20;;;;;;7676011;22;80194;-56
2022/12/02 12:46:05;;;;;;;14.18;9.02;;;21.70;41.00;;;;;;7675461;22;80749;-61
2022/12/02 12:49:05;;;;;;;12.52;9.02;;;21.60;40.70;;;;;;7675217;22;80507;-60
2022/12/02 12:52:06;;;;;;;14.18;9.10;;;21.70;41.20;;;;;;7677451;22;80606;-62
2022/12/02 12:55:06;;;;;;;12.80;9.05;;;21.70;40.70;;;;;;7672656;22;80232;-61
2022/12/02 12:58:08;;;;;;;13.15;9.13;;;21.70;41.00;;;;;;7669345;22;81453;-61
2022/12/02 13:01:08;;;;;;;13.20;9.05;;;21.60;40.90;;;;;;7675808;22;81327;-62
2022/12/02 13:04:09;;;;;;;18.40;10.38;;;21.70;40.60;;;;;;7674065;22;82408;-61
2022/12/02 13:07:09;;;;;;;13.02;9.35;;;21.70;41.10;;;;;;7670640;22;83879;-61
2022/12/02 13:10:10;;;;;;;17.88;8.98;;;21.70;41.10;;;;;;7669339;22;82972;-62
2022/12/02 13:13:10;;;;;;;11.85;9.18;;;21.70;40.90;;;;;;7667546;22;82142;-66
2022/12/02 13:16:10;;;;;;;14.30;9.70;;;21.60;40.80;;;;;;7675424;22;81093;-65
2022/12/02 13:19:11;;;;;;;12.70;8.88;;;21.60;40.90;;;;;;7675368;22;80875;-64
2022/12/02 13:22:11;;;;;;;12.48;9.40;;;21.60;40.80;;;;;;7673099;22;80711;-61
2022/12/02 13:25:12;;;;;;;14.50;9.45;;;21.60;40.30;;;;;;7670460;22;81292;-64
2022/12/02 13:28:12;;;;;;;14.00;9.13;;;21.60;41.10;;;;;;7675445;22;80066;-62
2022/12/02 13:31:13;;;;;;;12.25;8.38;;;21.60;40.90;;;;;;7675716;22;80825;-60
2022/12/02 13:34:13;;;;;;;14.35;9.43;;;21.60;40.90;;;;;;7671727;22;80450;-59
2022/12/02 13:37:14;;;;;;;13.85;9.02;;;21.70;40.50;;;;;;7674432;22;80676;-59
2022/12/02 13:40:14;;;;;;;13.60;8.82;;;21.70;40.30;;;;;;7670093;22;82067;-60
2022/12/02 13:43:15;;;;;;;12.98;8.48;;;21.70;40.20;;;;;;7674307;22;80779;-60
2022/12/02 13:46:15;;;;;;;13.57;9.40;;;21.70;39.80;;;;;;7671713;22;81337;-61
2022/12/02 13:49:16;;;;;;;15.25;10.20;;;21.70;38.70;;;;;;7674898;22;80375;-62
2022/12/02 13:52:16;;;;;;;12.00;8.88;;;21.80;38.50;;;;;;7669581;22;85301;-61
2022/12/02 13:55:17;;;;;;;13.98;9.27;;;21.80;38.10;;;;;;7674700;22;83225;-62
2022/12/02 13:58:17;;;;;;;13.65;9.93;;;21.90;38.10;;;;;;7667956;22;80797;-63
2022/12/02 14:01:18;;;;;;;11.68;9.02;;;21.90;37.80;;;;;;7676695;22;80898;-62
2022/12/02 14:04:19;;;;;;;12.35;9.10;;;22.00;37.70;;;;;;7657638;22;81664;-62
2022/12/02 14:07:20;;;;;;;13.45;8.80;;;22.00;37.50;;;;;;7672505;22;81377;-59
2022/12/02 14:10:20;;;;;;;13.20;9.35;;;22.10;37.60;;;;;;7677788;22;80515;-62
2022/12/02 14:13:21;;;;;;;16.27;9.30;;;22.10;37.70;;;;;;7676146;22;82078;-60
2022/12/02 14:16:22;;;;;;;13.55;10.00;;;22.20;38.00;;;;;;7677751;22;80425;-60
2022/12/02 14:19:22;;;;;;;14.00;9.23;;;22.30;38.30;;;;;;7668940;22;84214;-60
2022/12/02 14:22:23;;;;;;;13.27;8.82;;;22.30;38.40;;;;;;7668311;22;82334;-61
2022/12/02 14:25:23;;;;;;;15.98;9.32;;;22.40;38.30;;;;;;7677175;22;81385;-60
2022/12/02 14:28:23;;;;;;;15.18;9.50;;;22.40;38.20;;;;;;7651189;22;81038;-58
2022/12/02 14:31:24;;;;;;;16.45;9.55;;;22.40;38.00;;;;;;7668448;22;81081;-59
2022/12/02 14:34:24;;;;;;;12.38;8.70;;;22.50;38.00;;;;;;7677299;22;80712;-60
2022/12/02 14:37:25;;;;;;;27.95;9.95;;;22.50;37.80;;;;;;7678758;22;81259;-60
2022/12/02 14:40:27;;;;;;;12.95;8.50;;;22.50;37.80;;;;;;7677387;22;81207;-58
2022/12/02 14:43:27;;;;;;;13.90;8.20;;;22.50;37.60;;;;;;7677934;22;81240;-61
2022/12/02 14:46:29;;;;;;;13.00;8.82;;;22.60;37.60;;;;;;7679358;22;80301;-62
2022/12/02 14:49:30;;;;;;;14.35;9.05;;;22.60;37.60;;;;;;7657563;22;81682;-58
2022/12/02 14:52:30;;;;;;;13.90;9.00;;;22.70;37.60;;;;;;7680105;22;81523;-59
2022/12/02 14:55:31;;;;;;;12.63;8.70;;;22.70;37.70;;;;;;7677904;22;82128;-61
2022/12/02 14:58:31;;;;;;;12.38;9.15;;;22.70;37.60;;;;;;7677971;22;80218;-59
2022/12/02 15:01:31;;;;;;;14.60;9.45;;;22.70;37.30;;;;;;7672966;22;81969;-62
2022/12/02 15:04:32;;;;;;;11.98;9.00;;;22.80;37.20;;;;;;7679397;22;80667;-60
2022/12/02 15:07:32;;;;;;;13.32;8.95;;;22.80;37.20;;;;;;7675278;22;81190;-59
2022/12/02 15:10:33;;;;;;;11.35;8.50;;;22.80;37.10;;;;;;7670768;22;80374;-60
2022/12/02 15:13:34;;;;;;;15.18;8.75;;;22.80;37.00;;;;;;7676838;22;80169;-61
2022/12/02 15:16:34;;;;;;;12.55;8.85;;;22.90;37.00;;;;;;7669683;22;80626;-59
2022/12/02 15:19:35;;;;;;;13.50;9.73;;;22.90;37.10;;;;;;7678711;22;80359;-65
2022/12/02 15:22:35;;;;;;;15.45;9.40;;;22.90;37.00;;;;;;7679742;22;81040;-65
2022/12/02 15:25:36;;;;;;;15.23;10.85;;;22.90;36.80;;;;;;7677893;22;81278;-64
2022/12/02 15:28:36;;;;;;;16.15;9.13;;;22.90;36.60;;;;;;7676299;22;84155;-63
2022/12/02 15:31:37;;;;;;;12.23;9.05;;;22.90;36.50;;;;;;7678189;22;82813;-61
2022/12/02 15:34:37;;;;;;;14.82;9.77;;;22.90;36.30;;;;;;7676202;22;80256;-63